sensor_id;sensor_type;location;lat;lon;timestamp;P1;durP1;ratioP1;P2;durP2;ratioP2
15153;SDS011;7677;41.896;25.004;2023-02-28T00:01:29;8.13;;;2.33;;
15153;SDS011;7677;41.896;25.004;2023-02-28T00:03:56;9.90;;;2.33;;
15153;SDS011;7677;41.896;25.004;2023-02-28T00:06:23;10.93;;;2.90;;
15153;SDS011;7677;41.896;25.004;2023-02-28T00:08:53;7.00;;;2.67;;
15153;SDS011;7677;41.896;25.004;2023-02-28T00:11:22;5.00;;;2.73;;
15153;SDS011;7677;41.896;25.004;2023-02-28T00:13:49;9.77;;;2.33;;
15153;SDS011;7677;41.896;25.004;2023-02-28T00:16:22;4.23;;;2.27;;
15153;SDS011;7677;41.896;25.004;2023-02-28T00:18:52;7.50;;;2.33;;
15153;SDS011;7677;41.896;25.004;2023-02-28T00:21:19;10.97;;;2.63;;
15153;SDS011;7677;41.896;25.004;2023-02-28T00:23:46;13.43;;;3.03;;
15153;SDS011;7677;41.896;25.004;2023-02-28T00:26:14;7.70;;;2.37;;
15153;SDS011;7677;41.896;25.004;2023-02-28T00:28:41;5.53;;;2.00;;
15153;SDS011;7677;41.896;25.004;2023-02-28T00:31:08;15.80;;;3.37;;
15153;SDS011;7677;41.896;25.004;2023-02-28T00:33:42;9.97;;;2.43;;
15153;SDS011;7677;41.896;25.004;2023-02-28T00:36:11;13.97;;;3.37;;
15153;SDS011;7677;41.896;25.004;2023-02-28T00:38:38;7.63;;;2.77;;
15153;SDS011;7677;41.896;25.004;2023-02-28T00:41:06;10.87;;;2.77;;
15153;SDS011;7677;41.896;25.004;2023-02-28T00:43:34;6.67;;;3.30;;
15153;SDS011;7677;41.896;25.004;2023-02-28T00:46:03;11.00;;;3.33;;
15153;SDS011;7677;41.896;25.004;2023-02-28T00:48:38;11.60;;;2.83;;
15153;SDS011;7677;41.896;25.004;2023-02-28T00:51:06;11.77;;;2.83;;
15153;SDS011;7677;41.896;25.004;2023-02-28T00:53:35;5.80;;;1.90;;
15153;SDS011;7677;41.896;25.004;2023-02-28T00:56:06;6.17;;;2.83;;
15153;SDS011;7677;41.896;25.004;2023-02-28T00:58:35;7.57;;;3.60;;
15153;SDS011;7677;41.896;25.004;2023-02-28T01:01:03;4.87;;;2.73;;
15153;SDS011;7677;41.896;25.004;2023-02-28T01:03:30;13.00;;;3.00;;
15153;SDS011;7677;41.896;25.004;2023-02-28T01:06:01;7.00;;;2.70;;
15153;SDS011;7677;41.896;25.004;2023-02-28T01:08:28;4.87;;;2.93;;
15153;SDS011;7677;41.896;25.004;2023-02-28T01:11:06;8.17;;;2.53;;
15153;SDS011;7677;41.896;25.004;2023-02-28T01:13:37;7.90;;;1.97;;
15153;SDS011;7677;41.896;25.004;2023-02-28T01:16:07;8.27;;;3.50;;
15153;SDS011;7677;41.896;25.004;2023-02-28T01:18:35;8.80;;;2.77;;
15153;SDS011;7677;41.896;25.004;2023-02-28T01:21:05;3.77;;;2.63;;
15153;SDS011;7677;41.896;25.004;2023-02-28T01:23:37;3.17;;;2.47;;
15153;SDS011;7677;41.896;25.004;2023-02-28T01:26:05;7.10;;;3.43;;
15153;SDS011;7677;41.896;25.004;2023-02-28T01:28:32;5.60;;;2.60;;
15153;SDS011;7677;41.896;25.004;2023-02-28T01:31:01;6.97;;;2.80;;
15153;SDS011;7677;41.896;25.004;2023-02-28T01:33:28;6.97;;;3.00;;
15153;SDS011;7677;41.896;25.004;2023-02-28T06:03:36;14.23;;;8.60;;
15153;SDS011;7677;41.896;25.004;2023-02-28T06:44:19;17.33;;;9.77;;
15153;SDS011;7677;41.896;25.004;2023-02-28T06:46:46;20.67;;;11.03;;
15153;SDS011;7677;41.896;25.004;2023-02-28T06:49:13;25.50;;;11.90;;
15153;SDS011;7677;41.896;25.004;2023-02-28T06:51:41;24.50;;;11.37;;
15153;SDS011;7677;41.896;25.004;2023-02-28T06:54:10;20.83;;;11.33;;
15153;SDS011;7677;41.896;25.004;2023-02-28T06:56:37;22.87;;;11.93;;
15153;SDS011;7677;41.896;25.004;2023-02-28T06:59:05;28.97;;;12.07;;
15153;SDS011;7677;41.896;25.004;2023-02-28T07:01:33;21.40;;;11.60;;
15153;SDS011;7677;41.896;25.004;2023-02-28T07:04:01;24.17;;;11.87;;
15153;SDS011;7677;41.896;25.004;2023-02-28T07:06:29;23.13;;;12.53;;
15153;SDS011;7677;41.896;25.004;2023-02-28T07:08:56;28.27;;;12.13;;
15153;SDS011;7677;41.896;25.004;2023-02-28T07:11:24;21.27;;;12.50;;
15153;SDS011;7677;41.896;25.004;2023-02-28T07:13:53;24.23;;;11.77;;
15153;SDS011;7677;41.896;25.004;2023-02-28T07:16:20;24.50;;;12.03;;
15153;SDS011;7677;41.896;25.004;2023-02-28T07:18:51;23.13;;;11.50;;
15153;SDS011;7677;41.896;25.004;2023-02-28T07:21:19;21.40;;;12.00;;
15153;SDS011;7677;41.896;25.004;2023-02-28T07:23:46;22.83;;;12.00;;
15153;SDS011;7677;41.896;25.004;2023-02-28T07:26:14;27.57;;;12.27;;
15153;SDS011;7677;41.896;25.004;2023-02-28T07:28:49;26.10;;;12.73;;
15153;SDS011;7677;41.896;25.004;2023-02-28T07:31:16;29.93;;;13.90;;
15153;SDS011;7677;41.896;25.004;2023-02-28T07:33:44;25.20;;;13.37;;
15153;SDS011;7677;41.896;25.004;2023-02-28T07:36:13;29.37;;;14.30;;
15153;SDS011;7677;41.896;25.004;2023-02-28T07:38:43;27.00;;;13.17;;
15153;SDS011;7677;41.896;25.004;2023-02-28T07:41:13;19.77;;;12.57;;
15153;SDS011;7677;41.896;25.004;2023-02-28T07:43:40;27.03;;;12.60;;
15153;SDS011;7677;41.896;25.004;2023-02-28T07:46:08;24.80;;;11.47;;
15153;SDS011;7677;41.896;25.004;2023-02-28T07:48:36;22.63;;;12.23;;
15153;SDS011;7677;41.896;25.004;2023-02-28T07:51:04;22.60;;;12.30;;
15153;SDS011;7677;41.896;25.004;2023-02-28T07:53:33;19.70;;;12.13;;
15153;SDS011;7677;41.896;25.004;2023-02-28T07:56:00;27.97;;;12.53;;
15153;SDS011;7677;41.896;25.004;2023-02-28T07:58:29;23.33;;;11.93;;
15153;SDS011;7677;41.896;25.004;2023-02-28T08:00:56;24.23;;;13.87;;
15153;SDS011;7677;41.896;25.004;2023-02-28T08:03:24;25.43;;;12.50;;
15153;SDS011;7677;41.896;25.004;2023-02-28T08:05:51;23.10;;;12.67;;
15153;SDS011;7677;41.896;25.004;2023-02-28T08:08:19;20.23;;;12.07;;
15153;SDS011;7677;41.896;25.004;2023-02-28T08:10:47;23.57;;;12.90;;
15153;SDS011;7677;41.896;25.004;2023-02-28T08:13:14;24.10;;;11.93;;
15153;SDS011;7677;41.896;25.004;2023-02-28T08:15:41;22.90;;;11.20;;
15153;SDS011;7677;41.896;25.004;2023-02-28T08:18:10;23.73;;;12.13;;
15153;SDS011;7677;41.896;25.004;2023-02-28T08:20:37;15.73;;;10.40;;
15153;SDS011;7677;41.896;25.004;2023-02-28T08:23:04;25.33;;;11.77;;
15153;SDS011;7677;41.896;25.004;2023-02-28T08:25:31;21.23;;;12.40;;
15153;SDS011;7677;41.896;25.004;2023-02-28T08:28:00;20.43;;;11.97;;
15153;SDS011;7677;41.896;25.004;2023-02-28T08:30:27;26.90;;;11.47;;
15153;SDS011;7677;41.896;25.004;2023-02-28T08:32:54;22.07;;;11.97;;
15153;SDS011;7677;41.896;25.004;2023-02-28T08:35:22;26.07;;;12.13;;
15153;SDS011;7677;41.896;25.004;2023-02-28T08:37:49;17.60;;;10.70;;
15153;SDS011;7677;41.896;25.004;2023-02-28T08:40:16;26.17;;;12.93;;
15153;SDS011;7677;41.896;25.004;2023-02-28T08:42:44;27.33;;;13.33;;
15153;SDS011;7677;41.896;25.004;2023-02-28T08:45:13;22.47;;;12.23;;
15153;SDS011;7677;41.896;25.004;2023-02-28T08:47:41;24.50;;;12.73;;
15153;SDS011;7677;41.896;25.004;2023-02-28T08:50:17;19.73;;;10.50;;
15153;SDS011;7677;41.896;25.004;2023-02-28T08:52:44;17.73;;;9.93;;
15153;SDS011;7677;41.896;25.004;2023-02-28T08:55:11;17.23;;;9.90;;
15153;SDS011;7677;41.896;25.004;2023-02-28T08:57:38;19.20;;;9.83;;
15153;SDS011;7677;41.896;25.004;2023-02-28T09:00:06;26.67;;;9.87;;
15153;SDS011;7677;41.896;25.004;2023-02-28T09:02:48;23.07;;;12.63;;
15153;SDS011;7677;41.896;25.004;2023-02-28T09:05:15;22.63;;;12.30;;
15153;SDS011;7677;41.896;25.004;2023-02-28T09:07:42;17.97;;;10.23;;
15153;SDS011;7677;41.896;25.004;2023-02-28T09:10:09;20.97;;;9.80;;
15153;SDS011;7677;41.896;25.004;2023-02-28T09:12:37;13.70;;;8.63;;
15153;SDS011;7677;41.896;25.004;2023-02-28T09:15:05;18.07;;;9.37;;
15153;SDS011;7677;41.896;25.004;2023-02-28T09:17:33;29.17;;;13.83;;
15153;SDS011;7677;41.896;25.004;2023-02-28T09:20:02;24.60;;;13.47;;
15153;SDS011;7677;41.896;25.004;2023-02-28T09:22:30;32.37;;;14.07;;
15153;SDS011;7677;41.896;25.004;2023-02-28T09:24:57;33.33;;;16.20;;
15153;SDS011;7677;41.896;25.004;2023-02-28T09:27:25;32.07;;;15.27;;
15153;SDS011;7677;41.896;25.004;2023-02-28T09:29:52;27.57;;;14.60;;
15153;SDS011;7677;41.896;25.004;2023-02-28T09:32:19;26.03;;;12.90;;
15153;SDS011;7677;41.896;25.004;2023-02-28T09:34:59;27.63;;;14.97;;
15153;SDS011;7677;41.896;25.004;2023-02-28T09:37:28;27.57;;;13.83;;
15153;SDS011;7677;41.896;25.004;2023-02-28T09:39:56;33.13;;;15.47;;
15153;SDS011;7677;41.896;25.004;2023-02-28T09:42:24;29.87;;;15.33;;
15153;SDS011;7677;41.896;25.004;2023-02-28T09:44:56;34.97;;;15.73;;
15153;SDS011;7677;41.896;25.004;2023-02-28T09:47:27;33.70;;;18.10;;
15153;SDS011;7677;41.896;25.004;2023-02-28T09:49:58;29.47;;;15.30;;
15153;SDS011;7677;41.896;25.004;2023-02-28T09:52:43;31.60;;;16.67;;
15153;SDS011;7677;41.896;25.004;2023-02-28T09:55:18;27.07;;;15.53;;
15153;SDS011;7677;41.896;25.004;2023-02-28T10:00:39;25.20;;;14.03;;
15153;SDS011;7677;41.896;25.004;2023-02-28T10:03:15;25.70;;;13.63;;
15153;SDS011;7677;41.896;25.004;2023-02-28T10:05:52;24.63;;;12.60;;
15153;SDS011;7677;41.896;25.004;2023-02-28T10:08:23;30.07;;;15.80;;
15153;SDS011;7677;41.896;25.004;2023-02-28T10:10:53;32.67;;;19.17;;
15153;SDS011;7677;41.896;25.004;2023-02-28T10:13:24;35.20;;;19.07;;
15153;SDS011;7677;41.896;25.004;2023-02-28T10:15:54;30.33;;;16.97;;
15153;SDS011;7677;41.896;25.004;2023-02-28T10:18:23;30.57;;;17.17;;
15153;SDS011;7677;41.896;25.004;2023-02-28T10:20:52;25.20;;;16.20;;
15153;SDS011;7677;41.896;25.004;2023-02-28T10:23:21;32.23;;;17.23;;
15153;SDS011;7677;41.896;25.004;2023-02-28T10:25:54;30.40;;;15.93;;
15153;SDS011;7677;41.896;25.004;2023-02-28T10:28:24;34.07;;;16.30;;
15153;SDS011;7677;41.896;25.004;2023-02-28T10:30:53;31.33;;;15.37;;
15153;SDS011;7677;41.896;25.004;2023-02-28T10:33:22;28.97;;;15.73;;
15153;SDS011;7677;41.896;25.004;2023-02-28T10:35:50;26.67;;;14.60;;
15153;SDS011;7677;41.896;25.004;2023-02-28T10:38:18;32.27;;;15.90;;
15153;SDS011;7677;41.896;25.004;2023-02-28T10:40:48;25.40;;;14.57;;
15153;SDS011;7677;41.896;25.004;2023-02-28T10:43:19;29.90;;;14.27;;
15153;SDS011;7677;41.896;25.004;2023-02-28T10:45:55;30.80;;;15.50;;
15153;SDS011;7677;41.896;25.004;2023-02-28T10:48:27;26.40;;;14.87;;
15153;SDS011;7677;41.896;25.004;2023-02-28T10:50:57;30.13;;;15.13;;
15153;SDS011;7677;41.896;25.004;2023-02-28T10:53:28;39.10;;;19.17;;
15153;SDS011;7677;41.896;25.004;2023-02-28T10:56:00;46.30;;;23.47;;
15153;SDS011;7677;41.896;25.004;2023-02-28T10:58:30;42.10;;;20.57;;
15153;SDS011;7677;41.896;25.004;2023-02-28T11:00:58;50.67;;;23.80;;
15153;SDS011;7677;41.896;25.004;2023-02-28T11:03:30;41.40;;;20.83;;
15153;SDS011;7677;41.896;25.004;2023-02-28T11:06:03;31.70;;;16.53;;
15153;SDS011;7677;41.896;25.004;2023-02-28T11:08:33;31.80;;;15.60;;
15153;SDS011;7677;41.896;25.004;2023-02-28T11:11:03;36.70;;;19.27;;
15153;SDS011;7677;41.896;25.004;2023-02-28T11:13:32;32.60;;;17.90;;
15153;SDS011;7677;41.896;25.004;2023-02-28T11:16:00;38.80;;;19.77;;
15153;SDS011;7677;41.896;25.004;2023-02-28T11:18:30;32.33;;;18.80;;
15153;SDS011;7677;41.896;25.004;2023-02-28T11:21:09;35.97;;;17.57;;
15153;SDS011;7677;41.896;25.004;2023-02-28T11:23:42;45.73;;;19.50;;
15153;SDS011;7677;41.896;25.004;2023-02-28T11:26:11;43.67;;;17.43;;
15153;SDS011;7677;41.896;25.004;2023-02-28T11:29:08;30.77;;;15.53;;
15153;SDS011;7677;41.896;25.004;2023-02-28T11:31:37;32.57;;;16.77;;
15153;SDS011;7677;41.896;25.004;2023-02-28T11:36:49;32.70;;;16.43;;
15153;SDS011;7677;41.896;25.004;2023-02-28T11:39:18;35.70;;;17.03;;
15153;SDS011;7677;41.896;25.004;2023-02-28T11:41:53;33.50;;;18.60;;
15153;SDS011;7677;41.896;25.004;2023-02-28T11:44:43;35.30;;;18.83;;
15153;SDS011;7677;41.896;25.004;2023-02-28T11:47:32;38.87;;;20.17;;
15153;SDS011;7677;41.896;25.004;2023-02-28T11:50:16;35.87;;;17.00;;
15153;SDS011;7677;41.896;25.004;2023-02-28T11:52:49;41.43;;;17.20;;
15153;SDS011;7677;41.896;25.004;2023-02-28T11:55:24;33.77;;;15.47;;
15153;SDS011;7677;41.896;25.004;2023-02-28T11:57:56;25.33;;;13.23;;
15153;SDS011;7677;41.896;25.004;2023-02-28T12:00:40;25.73;;;14.03;;
15153;SDS011;7677;41.896;25.004;2023-02-28T12:03:21;31.87;;;14.83;;
15153;SDS011;7677;41.896;25.004;2023-02-28T12:05:56;35.40;;;17.00;;
15153;SDS011;7677;41.896;25.004;2023-02-28T12:08:33;34.87;;;18.17;;
15153;SDS011;7677;41.896;25.004;2023-02-28T12:11:10;30.93;;;14.80;;
15153;SDS011;7677;41.896;25.004;2023-02-28T12:13:43;33.43;;;18.13;;
15153;SDS011;7677;41.896;25.004;2023-02-28T12:16:22;36.60;;;16.77;;
15153;SDS011;7677;41.896;25.004;2023-02-28T12:19:01;29.23;;;15.43;;
15153;SDS011;7677;41.896;25.004;2023-02-28T12:21:36;26.53;;;13.97;;
15153;SDS011;7677;41.896;25.004;2023-02-28T12:24:19;31.93;;;14.43;;
15153;SDS011;7677;41.896;25.004;2023-02-28T12:26:54;29.83;;;16.20;;
15153;SDS011;7677;41.896;25.004;2023-02-28T12:29:23;31.47;;;15.33;;
15153;SDS011;7677;41.896;25.004;2023-02-28T12:31:53;36.17;;;17.20;;
15153;SDS011;7677;41.896;25.004;2023-02-28T12:34:27;31.37;;;17.30;;
15153;SDS011;7677;41.896;25.004;2023-02-28T12:36:58;29.40;;;14.77;;
15153;SDS011;7677;41.896;25.004;2023-02-28T12:39:28;41.00;;;18.30;;
15153;SDS011;7677;41.896;25.004;2023-02-28T12:41:59;32.10;;;16.10;;
15153;SDS011;7677;41.896;25.004;2023-02-28T12:44:40;31.90;;;16.47;;
15153;SDS011;7677;41.896;25.004;2023-02-28T12:47:15;42.77;;;21.93;;
15153;SDS011;7677;41.896;25.004;2023-02-28T12:49:44;32.10;;;16.40;;
15153;SDS011;7677;41.896;25.004;2023-02-28T12:52:13;33.87;;;15.83;;
15153;SDS011;7677;41.896;25.004;2023-02-28T12:54:46;28.93;;;13.97;;
15153;SDS011;7677;41.896;25.004;2023-02-28T12:57:17;35.33;;;15.43;;
15153;SDS011;7677;41.896;25.004;2023-02-28T12:59:53;25.53;;;14.03;;
15153;SDS011;7677;41.896;25.004;2023-02-28T13:02:27;35.03;;;14.20;;
15153;SDS011;7677;41.896;25.004;2023-02-28T13:05:19;32.30;;;15.10;;
15153;SDS011;7677;41.896;25.004;2023-02-28T13:11:22;27.53;;;12.60;;
15153;SDS011;7677;41.896;25.004;2023-02-28T13:13:56;26.53;;;14.17;;
15153;SDS011;7677;41.896;25.004;2023-02-28T13:16:24;23.23;;;12.57;;
15153;SDS011;7677;41.896;25.004;2023-02-28T13:18:53;23.03;;;11.83;;
15153;SDS011;7677;41.896;25.004;2023-02-28T13:21:41;22.93;;;12.57;;
15153;SDS011;7677;41.896;25.004;2023-02-28T13:24:10;26.43;;;13.33;;
15153;SDS011;7677;41.896;25.004;2023-02-28T13:29:49;22.40;;;12.13;;
15153;SDS011;7677;41.896;25.004;2023-02-28T13:44:07;30.03;;;13.80;;
15153;SDS011;7677;41.896;25.004;2023-02-28T13:46:36;27.53;;;12.70;;
15153;SDS011;7677;41.896;25.004;2023-02-28T13:49:25;25.80;;;12.60;;
15153;SDS011;7677;41.896;25.004;2023-02-28T13:51:55;28.43;;;12.87;;
15153;SDS011;7677;41.896;25.004;2023-02-28T13:54:37;27.27;;;13.87;;
15153;SDS011;7677;41.896;25.004;2023-02-28T13:57:12;29.40;;;12.57;;
15153;SDS011;7677;41.896;25.004;2023-02-28T13:59:48;24.87;;;12.47;;
15153;SDS011;7677;41.896;25.004;2023-02-28T14:02:29;26.63;;;13.37;;
15153;SDS011;7677;41.896;25.004;2023-02-28T14:05:06;25.90;;;13.77;;
15153;SDS011;7677;41.896;25.004;2023-02-28T14:07:41;22.93;;;11.13;;
15153;SDS011;7677;41.896;25.004;2023-02-28T14:10:21;23.07;;;13.13;;
15153;SDS011;7677;41.896;25.004;2023-02-28T14:13:01;21.57;;;11.83;;
15153;SDS011;7677;41.896;25.004;2023-02-28T14:15:38;25.40;;;13.43;;
15153;SDS011;7677;41.896;25.004;2023-02-28T14:18:13;24.93;;;13.07;;
15153;SDS011;7677;41.896;25.004;2023-02-28T14:20:46;26.43;;;14.33;;
15153;SDS011;7677;41.896;25.004;2023-02-28T14:23:21;18.50;;;11.07;;
15153;SDS011;7677;41.896;25.004;2023-02-28T14:26:01;17.27;;;11.77;;
15153;SDS011;7677;41.896;25.004;2023-02-28T14:28:37;26.63;;;12.53;;
15153;SDS011;7677;41.896;25.004;2023-02-28T14:31:12;23.80;;;12.53;;
15153;SDS011;7677;41.896;25.004;2023-02-28T14:36:46;21.07;;;12.53;;
15153;SDS011;7677;41.896;25.004;2023-02-28T14:39:14;25.43;;;13.83;;
15153;SDS011;7677;41.896;25.004;2023-02-28T14:41:43;27.07;;;14.57;;
15153;SDS011;7677;41.896;25.004;2023-02-28T14:44:15;35.77;;;16.43;;
15153;SDS011;7677;41.896;25.004;2023-02-28T14:46:44;16.80;;;11.67;;
15153;SDS011;7677;41.896;25.004;2023-02-28T14:49:16;19.17;;;11.27;;
15153;SDS011;7677;41.896;25.004;2023-02-28T14:51:46;18.00;;;11.60;;
15153;SDS011;7677;41.896;25.004;2023-02-28T14:57:06;17.57;;;13.07;;
15153;SDS011;7677;41.896;25.004;2023-02-28T14:59:45;16.13;;;11.00;;
15153;SDS011;7677;41.896;25.004;2023-02-28T15:02:16;17.67;;;11.63;;
15153;SDS011;7677;41.896;25.004;2023-02-28T15:04:51;20.57;;;13.07;;
15153;SDS011;7677;41.896;25.004;2023-02-28T15:07:19;38.07;;;20.87;;
15153;SDS011;7677;41.896;25.004;2023-02-28T15:10:09;30.43;;;17.47;;
15153;SDS011;7677;41.896;25.004;2023-02-28T15:12:41;25.13;;;14.80;;
15153;SDS011;7677;41.896;25.004;2023-02-28T15:15:15;20.23;;;11.70;;
15153;SDS011;7677;41.896;25.004;2023-02-28T15:17:44;23.27;;;12.73;;
15153;SDS011;7677;41.896;25.004;2023-02-28T15:20:12;20.33;;;13.33;;
15153;SDS011;7677;41.896;25.004;2023-02-28T15:22:41;19.17;;;11.37;;
15153;SDS011;7677;41.896;25.004;2023-02-28T15:25:09;16.87;;;10.83;;
15153;SDS011;7677;41.896;25.004;2023-02-28T15:27:45;19.53;;;13.07;;
15153;SDS011;7677;41.896;25.004;2023-02-28T15:30:15;18.07;;;11.17;;
15153;SDS011;7677;41.896;25.004;2023-02-28T15:32:44;15.47;;;11.13;;
15153;SDS011;7677;41.896;25.004;2023-02-28T15:35:19;16.63;;;10.47;;
15153;SDS011;7677;41.896;25.004;2023-02-28T15:37:48;19.40;;;9.73;;
15153;SDS011;7677;41.896;25.004;2023-02-28T15:40:22;21.63;;;12.87;;
15153;SDS011;7677;41.896;25.004;2023-02-28T15:43:04;17.20;;;12.10;;
15153;SDS011;7677;41.896;25.004;2023-02-28T15:45:33;15.90;;;10.93;;
15153;SDS011;7677;41.896;25.004;2023-02-28T15:48:10;15.57;;;10.80;;
15153;SDS011;7677;41.896;25.004;2023-02-28T15:50:42;13.00;;;8.53;;
15153;SDS011;7677;41.896;25.004;2023-02-28T15:53:13;11.60;;;9.03;;
15153;SDS011;7677;41.896;25.004;2023-02-28T15:55:42;12.47;;;8.40;;
15153;SDS011;7677;41.896;25.004;2023-02-28T15:58:11;17.43;;;11.57;;
15153;SDS011;7677;41.896;25.004;2023-02-28T16:00:39;24.87;;;14.23;;
15153;SDS011;7677;41.896;25.004;2023-02-28T16:06:20;13.60;;;9.00;;
15153;SDS011;7677;41.896;25.004;2023-02-28T16:09:09;20.80;;;10.53;;
15153;SDS011;7677;41.896;25.004;2023-02-28T16:11:41;21.70;;;10.70;;
15153;SDS011;7677;41.896;25.004;2023-02-28T16:14:16;22.17;;;11.47;;
15153;SDS011;7677;41.896;25.004;2023-02-28T16:16:56;14.77;;;8.87;;
15153;SDS011;7677;41.896;25.004;2023-02-28T16:19:25;12.63;;;8.13;;
15153;SDS011;7677;41.896;25.004;2023-02-28T16:21:52;8.10;;;5.53;;
15153;SDS011;7677;41.896;25.004;2023-02-28T16:24:19;9.30;;;6.10;;
15153;SDS011;7677;41.896;25.004;2023-02-28T16:26:47;12.33;;;6.03;;
15153;SDS011;7677;41.896;25.004;2023-02-28T16:29:19;10.00;;;5.97;;
15153;SDS011;7677;41.896;25.004;2023-02-28T16:31:50;9.70;;;7.07;;
15153;SDS011;7677;41.896;25.004;2023-02-28T16:34:18;8.60;;;5.40;;
15153;SDS011;7677;41.896;25.004;2023-02-28T16:36:46;8.33;;;6.30;;
15153;SDS011;7677;41.896;25.004;2023-02-28T16:39:14;8.13;;;4.90;;
15153;SDS011;7677;41.896;25.004;2023-02-28T16:41:41;6.73;;;5.37;;
15153;SDS011;7677;41.896;25.004;2023-02-28T16:44:11;7.27;;;5.63;;
15153;SDS011;7677;41.896;25.004;2023-02-28T16:46:41;11.77;;;8.07;;
15153;SDS011;7677;41.896;25.004;2023-02-28T16:49:10;14.73;;;9.03;;
15153;SDS011;7677;41.896;25.004;2023-02-28T16:51:38;9.30;;;6.63;;
15153;SDS011;7677;41.896;25.004;2023-02-28T16:54:06;8.47;;;6.10;;
15153;SDS011;7677;41.896;25.004;2023-02-28T16:56:33;12.53;;;7.10;;
15153;SDS011;7677;41.896;25.004;2023-02-28T16:59:01;11.10;;;6.30;;
15153;SDS011;7677;41.896;25.004;2023-02-28T17:01:29;13.10;;;6.90;;
15153;SDS011;7677;41.896;25.004;2023-02-28T17:03:58;15.17;;;7.93;;
15153;SDS011;7677;41.896;25.004;2023-02-28T17:06:26;14.13;;;8.73;;
15153;SDS011;7677;41.896;25.004;2023-02-28T17:08:54;12.00;;;7.30;;
15153;SDS011;7677;41.896;25.004;2023-02-28T17:11:22;12.03;;;7.23;;
15153;SDS011;7677;41.896;25.004;2023-02-28T17:13:49;10.00;;;5.40;;
15153;SDS011;7677;41.896;25.004;2023-02-28T17:16:20;8.57;;;6.40;;
15153;SDS011;7677;41.896;25.004;2023-02-28T17:18:50;8.43;;;5.47;;
15153;SDS011;7677;41.896;25.004;2023-02-28T17:21:19;7.77;;;4.80;;
15153;SDS011;7677;41.896;25.004;2023-02-28T17:23:46;8.13;;;5.60;;
15153;SDS011;7677;41.896;25.004;2023-02-28T17:26:14;11.13;;;5.40;;
15153;SDS011;7677;41.896;25.004;2023-02-28T17:28:42;10.90;;;7.10;;
15153;SDS011;7677;41.896;25.004;2023-02-28T17:31:10;12.37;;;7.50;;
15153;SDS011;7677;41.896;25.004;2023-02-28T17:33:37;11.53;;;7.33;;
15153;SDS011;7677;41.896;25.004;2023-02-28T17:36:05;9.87;;;5.50;;
15153;SDS011;7677;41.896;25.004;2023-02-28T17:38:34;10.67;;;6.97;;
15153;SDS011;7677;41.896;25.004;2023-02-28T17:41:02;8.83;;;5.87;;
15153;SDS011;7677;41.896;25.004;2023-02-28T17:43:29;13.10;;;7.07;;
15153;SDS011;7677;41.896;25.004;2023-02-28T17:45:57;7.83;;;5.37;;
15153;SDS011;7677;41.896;25.004;2023-02-28T17:48:24;11.40;;;5.63;;
15153;SDS011;7677;41.896;25.004;2023-02-28T17:50:53;9.03;;;5.37;;
15153;SDS011;7677;41.896;25.004;2023-02-28T17:53:21;6.97;;;5.27;;
15153;SDS011;7677;41.896;25.004;2023-02-28T17:55:50;4.87;;;3.53;;
15153;SDS011;7677;41.896;25.004;2023-02-28T17:58:17;7.60;;;4.83;;
15153;SDS011;7677;41.896;25.004;2023-02-28T18:00:45;8.10;;;5.03;;
15153;SDS011;7677;41.896;25.004;2023-02-28T18:03:13;9.20;;;5.33;;
15153;SDS011;7677;41.896;25.004;2023-02-28T18:05:40;6.27;;;4.70;;
15153;SDS011;7677;41.896;25.004;2023-02-28T18:08:08;8.67;;;6.00;;
15153;SDS011;7677;41.896;25.004;2023-02-28T18:10:36;7.17;;;5.23;;
15153;SDS011;7677;41.896;25.004;2023-02-28T18:13:05;7.30;;;4.93;;
15153;SDS011;7677;41.896;25.004;2023-02-28T18:15:32;7.07;;;4.10;;
15153;SDS011;7677;41.896;25.004;2023-02-28T18:18:05;8.67;;;4.73;;
15153;SDS011;7677;41.896;25.004;2023-02-28T18:20:33;7.97;;;5.30;;
15153;SDS011;7677;41.896;25.004;2023-02-28T18:23:00;8.50;;;4.57;;
15153;SDS011;7677;41.896;25.004;2023-02-28T18:25:28;7.00;;;3.83;;
15153;SDS011;7677;41.896;25.004;2023-02-28T18:27:55;5.50;;;3.93;;
15153;SDS011;7677;41.896;25.004;2023-02-28T18:30:28;11.00;;;7.63;;
15153;SDS011;7677;41.896;25.004;2023-02-28T18:32:57;10.00;;;6.50;;
15153;SDS011;7677;41.896;25.004;2023-02-28T18:35:25;16.47;;;7.83;;
15153;SDS011;7677;41.896;25.004;2023-02-28T18:38:03;11.20;;;6.10;;
15153;SDS011;7677;41.896;25.004;2023-02-28T18:40:39;16.43;;;7.93;;
15153;SDS011;7677;41.896;25.004;2023-02-28T18:43:07;11.37;;;6.47;;
15153;SDS011;7677;41.896;25.004;2023-02-28T18:45:36;12.40;;;6.73;;
15153;SDS011;7677;41.896;25.004;2023-02-28T18:48:04;8.33;;;5.73;;
15153;SDS011;7677;41.896;25.004;2023-02-28T18:50:32;10.40;;;5.50;;
15153;SDS011;7677;41.896;25.004;2023-02-28T18:52:59;8.87;;;6.07;;
15153;SDS011;7677;41.896;25.004;2023-02-28T18:55:36;8.00;;;5.10;;
15153;SDS011;7677;41.896;25.004;2023-02-28T18:58:03;8.17;;;5.47;;
15153;SDS011;7677;41.896;25.004;2023-02-28T19:00:31;9.57;;;5.73;;
15153;SDS011;7677;41.896;25.004;2023-02-28T19:03:02;9.83;;;4.63;;
15153;SDS011;7677;41.896;25.004;2023-02-28T19:05:29;8.33;;;5.60;;
15153;SDS011;7677;41.896;25.004;2023-02-28T19:07:58;9.00;;;4.30;;
15153;SDS011;7677;41.896;25.004;2023-02-28T19:10:26;10.97;;;5.20;;
15153;SDS011;7677;41.896;25.004;2023-02-28T19:12:53;6.73;;;4.53;;
15153;SDS011;7677;41.896;25.004;2023-02-28T19:15:21;7.37;;;4.50;;
15153;SDS011;7677;41.896;25.004;2023-02-28T19:17:48;12.40;;;5.13;;
15153;SDS011;7677;41.896;25.004;2023-02-28T19:20:17;11.17;;;6.20;;
15153;SDS011;7677;41.896;25.004;2023-02-28T19:22:45;6.03;;;3.33;;
15153;SDS011;7677;41.896;25.004;2023-02-28T19:25:12;4.43;;;3.50;;
15153;SDS011;7677;41.896;25.004;2023-02-28T19:27:51;4.63;;;3.33;;
15153;SDS011;7677;41.896;25.004;2023-02-28T19:30:18;12.67;;;3.93;;
15153;SDS011;7677;41.896;25.004;2023-02-28T19:32:46;6.40;;;4.57;;
15153;SDS011;7677;41.896;25.004;2023-02-28T19:35:13;10.77;;;5.57;;
15153;SDS011;7677;41.896;25.004;2023-02-28T19:37:47;9.27;;;5.17;;
15153;SDS011;7677;41.896;25.004;2023-02-28T19:40:17;4.83;;;3.63;;
15153;SDS011;7677;41.896;25.004;2023-02-28T19:42:44;7.33;;;4.97;;
15153;SDS011;7677;41.896;25.004;2023-02-28T19:45:13;9.20;;;4.97;;
15153;SDS011;7677;41.896;25.004;2023-02-28T19:47:40;5.93;;;3.40;;
15153;SDS011;7677;41.896;25.004;2023-02-28T19:50:08;3.97;;;3.27;;
15153;SDS011;7677;41.896;25.004;2023-02-28T19:52:36;3.00;;;2.70;;
15153;SDS011;7677;41.896;25.004;2023-02-28T19:55:05;4.90;;;3.30;;
15153;SDS011;7677;41.896;25.004;2023-02-28T19:57:33;8.53;;;5.83;;
15153;SDS011;7677;41.896;25.004;2023-02-28T20:00:01;12.90;;;6.23;;
15153;SDS011;7677;41.896;25.004;2023-02-28T20:02:28;8.37;;;6.00;;
15153;SDS011;7677;41.896;25.004;2023-02-28T20:04:56;12.00;;;7.10;;
15153;SDS011;7677;41.896;25.004;2023-02-28T20:07:24;8.53;;;5.17;;
15153;SDS011;7677;41.896;25.004;2023-02-28T20:09:51;6.73;;;5.37;;
15153;SDS011;7677;41.896;25.004;2023-02-28T20:12:20;7.90;;;5.27;;
15153;SDS011;7677;41.896;25.004;2023-02-28T20:14:48;8.27;;;5.17;;
15153;SDS011;7677;41.896;25.004;2023-02-28T20:17:15;6.73;;;5.43;;
15153;SDS011;7677;41.896;25.004;2023-02-28T20:19:42;12.93;;;6.60;;
15153;SDS011;7677;41.896;25.004;2023-02-28T20:22:10;9.43;;;6.17;;
15153;SDS011;7677;41.896;25.004;2023-02-28T20:24:37;7.23;;;4.93;;
15153;SDS011;7677;41.896;25.004;2023-02-28T20:27:04;5.87;;;4.70;;
15153;SDS011;7677;41.896;25.004;2023-02-28T20:29:33;5.30;;;4.67;;